Time;durP1;ratioP1;P1;durP2;ratioP2;P2;SDS_P1;SDS_P2;PMS_P1;PMS_P2;Temp;Humidity;BMP_temperature;BMP_pressure;BME280_temperature;BME280_humidity;BME280_pressure;Samples;Min_cycle;Max_cycle;Signal;HPM_P1;HPM_P2
2023/03/12 00:00:55;;;;;;;8.98;5.13;;;;;;;3.34;61.22;99924.19;5010843;28;20081;-61
2023/03/12 00:03:27;;;;;;;6.47;4.90;;;;;;;3.39;62.39;99922.25;5010938;28;20045;-60
2023/03/12 00:05:57;;;;;;;8.93;5.40;;;;;;;3.44;60.89;99919.50;5025105;28;20057;-60
2023/03/12 00:08:24;;;;;;;8.25;5.40;;;;;;;3.40;60.92;99925.84;5029136;28;20404;-60
2023/03/12 00:10:52;;;;;;;9.00;6.07;;;;;;;3.39;61.08;99921.44;5029959;28;20053;-60
2023/03/12 00:13:19;;;;;;;11.10;5.88;;;;;;;3.38;60.76;99928.03;5029929;28;20045;-60
2023/03/12 00:15:46;;;;;;;7.88;4.95;;;;;;;3.37;61.82;99921.72;5030216;28;20057;-61
2023/03/12 00:18:13;;;;;;;12.57;6.63;;;;;;;3.33;62.17;99917.06;5030184;28;20056;-61
2023/03/12 00:20:42;;;;;;;8.48;5.70;;;;;;;3.31;62.45;99919.28;5030049;28;20519;-61
2023/03/12 00:23:09;;;;;;;7.90;5.32;;;;;;;3.15;62.41;99919.31;5029965;28;20049;-61
2023/03/12 00:25:40;;;;;;;8.88;5.25;;;;;;;3.24;62.05;99914.06;5030089;28;20061;-60
2023/03/12 00:28:10;;;;;;;8.55;5.00;;;;;;;3.22;61.98;99911.59;5029161;28;20046;-61
2023/03/12 00:30:39;;;;;;;7.60;5.05;;;;;;;3.23;62.47;99907.75;5028906;28;20049;-60
2023/03/12 00:33:06;;;;;;;7.97;5.25;;;;;;;3.15;61.83;99911.06;5029840;28;20411;-60
2023/03/12 00:35:34;;;;;;;6.47;4.55;;;;;;;3.11;62.23;99904.47;5029309;28;20057;-60
2023/03/12 00:38:02;;;;;;;6.10;4.45;;;;;;;3.13;63.01;99902.25;5029810;28;20053;-61
2023/03/12 00:40:30;;;;;;;8.63;4.47;;;;;;;3.10;62.23;99911.06;5029785;28;20056;-61
2023/03/12 00:42:57;;;;;;;6.75;4.93;;;;;;;3.08;63.14;99899.50;5029127;28;20404;-60
2023/03/12 00:45:24;;;;;;;7.72;4.32;;;;;;;3.12;63.20;99903.34;5028350;28;20053;-61
2023/03/12 00:47:52;;;;;;;5.28;4.30;;;;;;;3.07;62.07;99903.38;5028949;28;20053;-60
2023/03/12 00:50:19;;;;;;;11.68;5.30;;;;;;;3.11;61.84;99898.13;5029904;28;20057;-60
2023/03/12 00:52:47;;;;;;;5.55;4.00;;;;;;;3.07;63.11;99897.88;5029339;28;20395;-60
2023/03/12 00:55:15;;;;;;;6.57;5.03;;;;;;;3.07;63.50;99894.28;5030031;28;20061;-60
2023/03/12 00:57:43;;;;;;;6.63;4.20;;;;;;;3.07;63.16;99886.88;5029705;28;20053;-60
2023/03/12 01:00:12;;;;;;;5.93;4.13;;;;;;;3.10;63.31;99880.78;5028244;28;20050;-60
2023/03/12 01:02:40;;;;;;;6.35;3.75;;;;;;;3.08;62.75;99885.75;5029505;28;20061;-60
2023/03/12 01:05:11;;;;;;;5.55;3.78;;;;;;;3.08;63.42;99883.00;5029742;28;20053;-60
2023/03/12 01:07:38;;;;;;;7.18;4.70;;;;;;;3.11;62.58;99876.94;5029668;28;20060;-60
2023/03/12 01:10:07;;;;;;;4.93;3.72;;;;;;;3.17;63.12;99881.34;5030056;28;20060;-60
2023/03/12 01:12:35;;;;;;;5.18;4.03;;;;;;;3.19;61.96;99876.38;5029178;28;20057;-60
2023/03/12 01:15:06;;;;;;;6.65;4.05;;;;;;;3.20;63.40;99877.19;5028025;28;20431;-60
2023/03/12 01:17:33;;;;;;;6.18;4.13;;;;;;;3.22;62.38;99870.31;5031368;28;20065;-61
2023/03/12 01:20:01;;;;;;;6.50;4.05;;;;;;;3.22;62.81;99859.28;5033554;28;20054;-60
2023/03/12 01:22:28;;;;;;;6.03;4.32;;;;;;;3.28;62.43;99873.88;5032969;28;20057;-60
2023/03/12 01:24:55;;;;;;;5.88;4.10;;;;;;;3.27;62.86;99860.38;5032717;28;20061;-60
2023/03/12 01:27:22;;;;;;;7.60;4.07;;;;;;;3.32;62.76;99860.34;5032672;28;20050;-60
2023/03/12 01:29:51;;;;;;;6.47;3.90;;;;;;;3.34;61.76;99863.66;5030910;28;20064;-60
2023/03/12 01:32:18;;;;;;;5.40;4.43;;;;;;;3.28;61.79;99864.78;5032430;28;20060;-60
2023/03/12 01:34:45;;;;;;;5.93;5.00;;;;;;;3.30;63.04;99855.16;5031608;28;20499;-60
2023/03/12 01:37:13;;;;;;;6.63;5.40;;;;;;;3.30;63.49;99862.56;5032427;28;20496;-61
2023/03/12 01:39:40;;;;;;;8.40;5.03;;;;;;;3.31;63.52;99861.47;5032563;28;20381;-61
2023/03/12 01:42:08;;;;;;;8.68;5.07;;;;;;;3.33;63.12;99859.25;5032384;28;20050;-61
2023/03/12 01:44:51;;;;;;;7.60;4.80;;;;;;;3.35;62.37;99849.59;5031324;27;20045;-60
2023/03/12 01:47:18;;;;;;;5.82;4.30;;;;;;;3.31;62.19;99848.53;5032315;28;20054;-60
2023/03/12 01:49:47;;;;;;;5.93;4.13;;;;;;;3.34;62.93;99850.72;5031902;28;20064;-60
2023/03/12 01:52:19;;;;;;;8.57;5.00;;;;;;;3.30;62.07;99849.66;5033004;28;20412;-60
2023/03/12 01:54:52;;;;;;;5.80;4.65;;;;;;;3.31;62.16;99839.44;5033146;28;20403;-61
2023/03/12 01:57:26;;;;;;;7.75;4.25;;;;;;;3.29;62.72;99839.72;5033011;28;20054;-61
2023/03/12 02:00:01;;;;;;;6.57;4.28;;;;;;;3.27;62.04;99836.44;5030896;28;20138;-60
2023/03/12 02:02:29;;;;;;;7.50;4.70;;;;;;;3.34;62.75;99827.84;5031895;28;20049;-61
2023/03/12 02:05:03;;;;;;;4.95;3.65;;;;;;;3.37;63.33;99827.31;5032243;28;20064;-61
2023/03/12 02:07:31;;;;;;;5.30;3.85;;;;;;;3.42;62.36;99828.13;5032252;28;20053;-61
2023/03/12 02:09:58;;;;;;;5.78;3.50;;;;;;;3.46;63.16;99828.34;5032233;28;20060;-60
2023/03/12 02:12:26;;;;;;;5.40;3.80;;;;;;;3.48;62.25;99820.63;5032198;27;20057;-61
2023/03/12 02:14:54;;;;;;;5.25;4.05;;;;;;;3.45;63.06;99810.22;5031514;28;20054;-61
2023/03/12 02:17:22;;;;;;;6.57;3.78;;;;;;;3.47;61.96;99809.94;5032262;28;20057;-60
2023/03/12 02:19:58;;;;;;;6.22;4.07;;;;;;;3.53;62.08;99814.28;5032148;28;20057;-61
2023/03/12 02:22:25;;;;;;;6.35;3.65;;;;;;;3.60;61.54;99801.84;5032756;28;20060;-61
2023/03/12 02:24:57;;;;;;;5.97;3.70;;;;;;;3.65;62.47;99801.00;5032120;28;20046;-61
2023/03/12 02:27:26;;;;;;;5.60;4.07;;;;;;;3.72;62.83;99811.72;5030940;28;20053;-61
2023/03/12 02:29:56;;;;;;;7.20;4.32;;;;;;;3.72;61.96;99812.53;5012056;28;20065;-61
2023/03/12 02:32:28;;;;;;;5.85;4.57;;;;;;;3.74;62.45;99803.97;5011961;28;20054;-61
2023/03/12 02:34:56;;;;;;;7.68;4.63;;;;;;;3.76;62.50;99810.00;5012597;28;20439;-61
2023/03/12 02:37:24;;;;;;;9.02;4.97;;;;;;;3.77;62.27;99797.91;5012721;28;20065;-61
2023/03/12 02:39:59;;;;;;;7.60;4.60;;;;;;;3.79;62.38;99801.19;5012337;28;20420;-62
2023/03/12 02:42:27;;;;;;;6.97;4.65;;;;;;;3.82;62.71;99797.84;5014023;27;20401;-61
2023/03/12 02:44:55;;;;;;;7.45;4.35;;;;;;;3.79;61.38;99798.44;5032234;28;20049;-61
2023/03/12 02:47:22;;;;;;;6.53;3.92;;;;;;;3.80;61.65;99798.16;5019261;28;20058;-61
2023/03/12 02:49:49;;;;;;;6.65;4.50;;;;;;;3.84;62.05;99795.63;5012967;28;20054;-61
2023/03/12 02:52:16;;;;;;;7.65;4.40;;;;;;;3.86;61.30;99783.25;5012223;28;20495;-60
2023/03/12 02:54:44;;;;;;;5.50;3.58;;;;;;;3.89;62.38;99784.59;5012818;28;20050;-61
2023/03/12 02:57:11;;;;;;;5.90;3.70;;;;;;;3.90;62.32;99780.72;5013828;27;20054;-60
2023/03/12 02:59:39;;;;;;;5.55;4.07;;;;;;;3.85;61.88;99776.06;5031705;28;20049;-60
2023/03/12 03:02:08;;;;;;;7.28;4.40;;;;;;;3.85;62.13;99784.34;5031639;28;20049;-60
2023/03/12 03:04:35;;;;;;;6.32;4.32;;;;;;;3.92;62.25;99784.00;5031636;28;20053;-61
2023/03/12 03:07:03;;;;;;;6.82;4.60;;;;;;;3.98;62.26;99782.84;5028691;28;20053;-60
2023/03/12 03:09:33;;;;;;;6.68;4.40;;;;;;;3.99;62.07;99790.03;5031551;28;20407;-61
2023/03/12 03:12:00;;;;;;;6.70;4.15;;;;;;;4.03;62.33;99787.50;5029063;27;20064;-62
2023/03/12 03:14:28;;;;;;;8.52;5.22;;;;;;;4.03;61.95;99790.25;5031220;28;20400;-60
2023/03/12 03:16:56;;;;;;;6.20;4.72;;;;;;;4.04;61.52;99778.94;5031075;28;20435;-60
2023/03/12 03:19:25;;;;;;;6.13;4.50;;;;;;;4.09;61.32;99777.28;5031271;28;20060;-61
2023/03/12 03:21:52;;;;;;;6.33;4.80;;;;;;;4.12;61.67;99771.19;5031506;28;20054;-61
2023/03/12 03:24:20;;;;;;;8.43;5.25;;;;;;;4.06;62.05;99765.72;5032374;28;20471;-61
2023/03/12 03:26:47;;;;;;;7.88;4.45;;;;;;;4.11;62.30;99772.28;5030958;28;20053;-60
2023/03/12 03:29:15;;;;;;;7.72;5.20;;;;;;;4.14;62.22;99755.19;5029965;28;20050;-61
2023/03/12 03:31:46;;;;;;;7.85;4.50;;;;;;;4.15;62.38;99759.56;5030757;28;20412;-61
2023/03/12 03:34:18;;;;;;;7.00;5.28;;;;;;;4.15;61.28;99754.06;5031670;28;20053;-61
2023/03/12 03:36:45;;;;;;;7.63;5.32;;;;;;;4.13;61.30;99759.03;5030503;28;20058;-61
2023/03/12 03:39:12;;;;;;;8.32;5.00;;;;;;;4.07;62.15;99763.75;5030599;28;20399;-62
2023/03/12 03:41:42;;;;;;;7.93;4.63;;;;;;;4.08;60.92;99759.91;5029921;28;20492;-61
2023/03/12 03:44:10;;;;;;;;;;;;;;;4.04;62.01;99758.84;5032161;28;20060;-61
2023/03/12 03:46:37;;;;;;;15.88;6.88;;;;;;;3.87;60.77;99753.75;5024411;28;19921;-61
2023/03/12 03:49:05;;;;;;;8.80;5.57;;;;;;;3.82;61.68;99742.75;5012242;28;20058;-61
2023/03/12 03:51:33;;;;;;;8.55;5.10;;;;;;;3.82;61.70;99745.50;5011734;28;20061;-63
2023/03/12 03:54:01;;;;;;;7.80;5.85;;;;;;;3.78;61.00;99744.44;5011828;28;20061;-62
2023/03/12 03:56:28;;;;;;;7.53;5.55;;;;;;;3.76;61.26;99747.50;5012151;28;20515;-62
2023/03/12 03:58:56;;;;;;;6.05;4.30;;;;;;;3.68;61.81;99736.28;5031036;28;20049;-62
2023/03/12 04:01:23;;;;;;;6.45;4.03;;;;;;;3.69;60.44;99735.97;5030327;28;20061;-62
2023/03/12 04:03:54;;;;;;;6.05;4.20;;;;;;;3.72;60.51;99737.34;5030564;28;20502;-61
2023/03/12 04:06:21;;;;;;;5.07;3.85;;;;;;;3.69;60.28;99735.16;5030465;28;20504;-64
2023/03/12 04:08:50;;;;;;;4.43;2.72;;;;;;;3.70;57.75;99737.63;5030515;28;20053;-62
2023/03/12 04:11:19;;;;;;;5.35;2.35;;;;;;;3.57;55.34;99733.59;5029393;28;20055;-62
2023/03/12 04:13:47;;;;;;;5.20;2.25;;;;;;;3.75;55.15;99723.81;5025236;28;20050;-62
2023/03/12 04:16:16;;;;;;;8.95;3.08;;;;;;;3.69;53.68;99729.66;5030683;28;20049;-62
2023/03/12 04:18:43;;;;;;;5.65;1.95;;;;;;;3.82;53.86;99729.81;5030134;28;20061;-62
2023/03/12 04:21:13;;;;;;;4.35;1.98;;;;;;;3.94;54.34;99726.69;5031287;28;20056;-62
2023/03/12 04:23:40;;;;;;;4.55;2.15;;;;;;;3.95;53.83;99722.84;5031257;28;20058;-62
2023/03/12 04:26:09;;;;;;;6.05;3.08;;;;;;;4.06;53.17;99729.88;5030900;28;20049;-62
2023/03/12 04:28:37;;;;;;;5.43;3.33;;;;;;;4.02;55.93;99726.06;5029091;28;20507;-63
2023/03/12 04:31:06;;;;;;;5.97;3.38;;;;;;;4.11;55.53;99728.19;5030045;28;20054;-62
2023/03/12 04:33:37;;;;;;;8.15;3.15;;;;;;;4.16;56.23;99717.09;5030120;28;20061;-62
2023/03/12 04:36:05;;;;;;;7.20;3.45;;;;;;;4.19;55.88;99713.78;5029565;28;20049;-62
2023/03/12 04:38:33;;;;;;;5.55;2.78;;;;;;;4.21;54.87;99715.13;5030076;28;20120;-63
2023/03/12 04:41:02;;;;;;;4.28;2.75;;;;;;;4.32;55.23;99715.84;5029491;28;20427;-62
2023/03/12 04:43:34;;;;;;;4.40;2.03;;;;;;;4.26;52.69;99714.25;5026689;27;20045;-62
2023/03/12 04:46:02;;;;;;;2.65;1.55;;;;;;;4.39;53.09;99704.47;5029804;28;20056;-62
2023/03/12 04:48:29;;;;;;;3.72;1.75;;;;;;;4.42;51.92;99704.72;5029925;28;20064;-63
2023/03/12 04:50:57;;;;;;;4.32;1.90;;;;;;;4.45;50.60;99704.16;5029449;28;20053;-62
2023/03/12 04:53:27;;;;;;;5.43;1.70;;;;;;;4.52;51.83;99706.56;5029136;28;20053;-62
2023/03/12 04:55:54;;;;;;;;;;;;;;;4.61;51.47;99712.25;5030065;28;20049;-62
2023/03/12 04:58:22;;;;;;;4.30;1.88;;;;;;;4.43;50.29;99711.03;5028205;28;19921;-62
2023/03/12 05:00:52;;;;;;;2.90;1.58;;;;;;;4.59;49.68;99703.44;5030032;28;20510;-62
2023/03/12 05:03:19;;;;;;;3.47;1.65;;;;;;;4.51;50.04;99696.63;5029804;28;20491;-62
2023/03/12 05:05:47;;;;;;;5.63;1.67;;;;;;;4.65;49.62;99699.50;5030404;28;20488;-62
2023/03/12 05:08:17;;;;;;;3.88;1.70;;;;;;;4.71;49.68;99694.75;5029616;28;20082;-62
2023/03/12 05:10:46;;;;;;;;;;;;;;;4.69;49.50;99692.28;5030095;28;20053;-62
2023/03/12 05:13:15;;;;;;;4.13;1.60;;;;;;;4.71;48.74;99684.53;5028692;28;19928;-62
2023/03/12 05:15:44;;;;;;;3.92;1.80;;;;;;;4.65;48.88;99694.00;5029030;28;20056;-62
2023/03/12 05:18:13;;;;;;;7.45;3.55;;;;;;;4.64;49.31;99690.41;5029543;28;20060;-62
2023/03/12 05:20:40;;;;;;;6.43;2.13;;;;;;;4.66;49.57;99681.81;5030631;28;20054;-62
2023/03/12 05:23:08;;;;;;;5.90;2.22;;;;;;;4.67;48.23;99678.78;5028682;28;20054;-62
2023/03/12 05:25:39;;;;;;;3.38;1.83;;;;;;;4.68;48.87;99674.06;5029383;28;20045;-62
2023/03/12 05:28:06;;;;;;;2.80;1.60;;;;;;;4.69;48.82;99675.75;5028474;28;20068;-62
2023/03/12 05:30:33;;;;;;;5.25;1.52;;;;;;;4.63;47.98;99663.13;5029214;28;20519;-61
2023/03/12 05:33:02;;;;;;;4.07;1.30;;;;;;;4.67;48.83;99655.91;5029324;28;20057;-62
2023/03/12 05:35:30;;;;;;;3.67;1.77;;;;;;;4.73;48.42;99651.97;5028711;28;20049;-62
2023/03/12 05:37:58;;;;;;;4.32;1.50;;;;;;;4.75;48.81;99655.25;5029583;28;20057;-62
2023/03/12 05:40:25;;;;;;;4.43;1.70;;;;;;;4.74;48.26;99644.50;5029215;28;20057;-62
2023/03/12 05:42:53;;;;;;;4.45;1.92;;;;;;;4.74;48.18;99639.78;5027706;28;20399;-62
2023/03/12 05:45:20;;;;;;;4.22;1.73;;;;;;;4.63;48.50;99636.34;5029082;28;20057;-62
2023/03/12 05:47:47;;;;;;;5.75;1.45;;;;;;;4.65;48.97;99638.81;5029189;28;20056;-61
2023/03/12 05:50:16;;;;;;;5.55;1.60;;;;;;;4.73;49.17;99631.84;5029177;28;20488;-62
2023/03/12 05:52:44;;;;;;;3.88;1.65;;;;;;;4.72;48.50;99627.41;5028711;28;20072;-61
2023/03/12 05:55:11;;;;;;;6.55;2.08;;;;;;;4.80;49.49;99621.25;5028693;28;20057;-62
2023/03/12 05:57:39;;;;;;;5.43;1.50;;;;;;;4.82;49.23;99638.31;5027592;28;20487;-62
2023/03/12 06:00:07;;;;;;;2.95;1.48;;;;;;;4.91;49.12;99635.72;5029278;28;20065;-61
2023/03/12 06:02:35;;;;;;;4.07;1.25;;;;;;;4.94;48.92;99621.34;5029114;28;20049;-61
2023/03/12 06:05:02;;;;;;;3.70;1.35;;;;;;;4.96;49.10;99610.81;5032534;28;20056;-62
2023/03/12 06:07:29;;;;;;;2.85;1.33;;;;;;;5.02;48.96;99624.25;5032211;28;20385;-61
2023/03/12 06:09:58;;;;;;;3.83;1.33;;;;;;;5.01;48.30;99628.09;5031957;28;20069;-61
2023/03/12 06:12:26;;;;;;;2.38;1.40;;;;;;;5.15;48.25;99621.88;5030872;28;20046;-61
2023/03/12 06:14:53;;;;;;;6.78;1.77;;;;;;;5.14;48.69;99621.00;5031710;28;20057;-62
2023/03/12 06:17:20;;;;;;;4.82;1.40;;;;;;;5.17;48.40;99612.16;5031587;28;20049;-61
2023/03/12 06:19:51;;;;;;;4.55;1.83;;;;;;;5.25;48.73;99605.16;5031597;28;20064;-61
2023/03/12 06:22:19;;;;;;;4.22;1.48;;;;;;;5.26;48.13;99604.81;5032879;28;20484;-61
2023/03/12 06:24:47;;;;;;;6.35;1.63;;;;;;;5.35;48.07;99590.34;5032365;28;20411;-61
2023/03/12 06:27:16;;;;;;;3.67;1.50;;;;;;;5.32;48.59;99593.72;5022133;27;20432;-61
2023/03/12 06:29:45;;;;;;;4.43;1.70;;;;;;;5.29;48.41;99581.31;5026109;28;20053;-61
2023/03/12 06:32:13;;;;;;;4.13;2.17;;;;;;;5.38;48.44;99584.22;5031828;28;20057;-62
2023/03/12 06:34:40;;;;;;;4.97;1.60;;;;;;;5.33;48.94;99581.53;5032723;28;20049;-61
2023/03/12 06:37:07;;;;;;;8.13;2.10;;;;;;;5.42;48.99;99579.75;5032213;28;20046;-61
2023/03/12 06:39:34;;;;;;;5.43;2.33;;;;;;;5.41;49.81;99575.31;5032840;28;20053;-61
2023/03/12 06:42:02;;;;;;;7.93;2.30;;;;;;;5.41;50.28;99558.75;5031673;28;20399;-61
2023/03/12 06:44:30;;;;;;;4.45;2.10;;;;;;;5.44;50.69;99558.97;5031846;28;20056;-62
2023/03/12 06:46:58;;;;;;;2.97;1.90;;;;;;;5.45;50.81;99559.78;5031580;28;20049;-61
2023/03/12 06:49:26;;;;;;;5.15;1.95;;;;;;;5.74;50.48;99567.84;5031246;28;20062;-61
2023/03/12 06:51:55;;;;;;;4.63;2.08;;;;;;;6.23;50.05;99582.13;5030757;28;20084;-61
2023/03/12 06:54:23;;;;;;;3.00;2.05;;;;;;;7.54;47.86;99573.06;5031795;28;20060;-61
2023/03/12 06:56:50;;;;;;;4.90;2.28;;;;;;;7.44;46.65;99567.78;5030274;28;20498;-61
2023/03/12 06:59:20;;;;;;;4.35;2.25;;;;;;;6.75;48.54;99568.03;5031688;28;20057;-61
2023/03/12 07:01:49;;;;;;;5.90;2.28;;;;;;;6.34;50.01;99569.75;5031595;28;20080;-61
2023/03/12 07:04:16;;;;;;;3.67;1.90;;;;;;;6.30;50.58;99579.78;5030305;28;20068;-61
2023/03/12 07:06:49;;;;;;;6.10;2.40;;;;;;;6.26;50.70;99578.75;5031462;28;20052;-62
2023/03/12 07:09:16;;;;;;;6.70;2.40;;;;;;;5.90;51.77;99583.00;5031416;28;20071;-61
2023/03/12 07:11:44;;;;;;;5.88;2.60;;;;;;;5.75;52.13;99579.69;5029858;27;20061;-62
2023/03/12 07:14:11;;;;;;;5.47;2.50;;;;;;;5.93;51.71;99564.19;5031004;28;20068;-61
2023/03/12 07:16:39;;;;;;;4.25;2.40;;;;;;;5.87;52.56;99560.69;5031482;28;20056;-61
2023/03/12 07:19:07;;;;;;;3.97;2.42;;;;;;;5.86;52.97;99567.34;5031297;28;20557;-61
2023/03/12 07:21:34;;;;;;;5.85;2.45;;;;;;;5.97;52.96;99566.06;5031025;28;20053;-61
2023/03/12 07:24:05;;;;;;;4.57;2.08;;;;;;;5.94;53.44;99574.91;5031133;28;20055;-61
2023/03/12 07:26:34;;;;;;;4.97;2.63;;;;;;;5.99;53.32;99563.00;5030422;28;20068;-61
2023/03/12 07:29:01;;;;;;;4.68;2.25;;;;;;;5.99;53.66;99561.03;5030815;27;20072;-61
2023/03/12 07:31:28;;;;;;;5.20;2.60;;;;;;;5.81;54.72;99561.91;5031277;28;20050;-61
2023/03/12 07:33:56;;;;;;;5.25;2.63;;;;;;;5.69;55.16;99554.09;5031265;28;20053;-61
2023/03/12 07:36:25;;;;;;;5.90;2.80;;;;;;;5.70;55.63;99556.56;5030947;28;20382;-61
2023/03/12 07:38:52;;;;;;;5.13;2.50;;;;;;;5.72;56.13;99547.97;5031725;28;20492;-61
2023/03/12 07:41:19;;;;;;;4.22;2.50;;;;;;;5.87;56.32;99547.69;5029468;28;20060;-62
2023/03/12 07:43:47;;;;;;;4.65;2.38;;;;;;;5.91;56.68;99550.66;5030980;28;20049;-61
2023/03/12 07:46:14;;;;;;;4.20;2.40;;;;;;;5.83;57.30;99548.59;5030928;28;20060;-61
2023/03/12 07:48:41;;;;;;;5.97;2.83;;;;;;;5.80;57.75;99549.22;5030740;28;20407;-61
2023/03/12 07:51:09;;;;;;;4.22;2.72;;;;;;;5.78;58.32;99562.53;5030594;28;20054;-61
2023/03/12 07:53:37;;;;;;;6.13;3.08;;;;;;;5.73;58.72;99560.66;5031357;28;20061;-61
2023/03/12 07:56:05;;;;;;;5.75;2.95;;;;;;;5.62;59.90;99548.97;5029726;28;20057;-61
2023/03/12 07:58:35;;;;;;;4.82;2.67;;;;;;;5.56;61.06;99558.47;5029975;28;20053;-61
2023/03/12 08:01:02;;;;;;;7.53;3.25;;;;;;;5.55;61.40;99545.81;5029737;28;20049;-61
2023/03/12 08:03:30;;;;;;;6.65;2.70;;;;;;;5.53;62.70;99537.00;5029625;27;20046;-61
2023/03/12 08:05:59;;;;;;;4.50;2.90;;;;;;;5.64;64.17;99549.50;5030521;28;20065;-62
2023/03/12 08:08:27;;;;;;;6.40;3.70;;;;;;;5.55;64.14;99545.81;5030580;28;20049;-61
2023/03/12 08:10:56;;;;;;;5.05;3.20;;;;;;;5.52;63.77;99538.09;5030024;28;20056;-62
2023/03/12 08:13:23;;;;;;;5.72;3.10;;;;;;;5.51;64.12;99539.25;5029561;28;20057;-61
2023/03/12 08:15:51;;;;;;;7.55;3.10;;;;;;;5.51;64.31;99541.19;5030057;28;20064;-61
2023/03/12 08:18:19;;;;;;;5.45;3.30;;;;;;;5.56;64.06;99539.13;5030673;28;20056;-61
2023/03/12 08:20:49;;;;;;;6.05;3.33;;;;;;;5.52;64.60;99545.56;5030582;27;20060;-61
2023/03/12 08:23:17;;;;;;;6.60;3.35;;;;;;;5.51;64.91;99539.25;5030473;28;20050;-62
2023/03/12 08:25:45;;;;;;;5.72;3.25;;;;;;;5.59;65.13;99546.84;5029920;28;20053;-61
2023/03/12 08:28:15;;;;;;;5.40;3.30;;;;;;;5.48;65.24;99548.97;5030341;28;20407;-61
2023/03/12 08:30:46;;;;;;;5.32;3.42;;;;;;;5.46;66.19;99544.88;5030428;28;20519;-61
2023/03/12 08:33:13;;;;;;;6.03;3.15;;;;;;;5.55;65.89;99545.81;5030176;28;20068;-61
2023/03/12 08:35:40;;;;;;;7.15;3.25;;;;;;;5.53;66.03;99534.25;5030048;28;20049;-61
2023/03/12 08:38:08;;;;;;;5.57;2.90;;;;;;;5.66;66.12;99530.66;5030040;28;20045;-62
2023/03/12 08:40:35;;;;;;;5.90;3.03;;;;;;;5.80;65.90;99538.16;5029963;28;20075;-61
2023/03/12 08:43:03;;;;;;;5.15;3.10;;;;;;;5.81;66.29;99531.50;5027683;27;20053;-62
2023/03/12 08:45:31;;;;;;;5.35;3.38;;;;;;;5.76;66.01;99532.44;5028270;28;20049;-61
2023/03/12 08:47:59;;;;;;;5.68;3.05;;;;;;;5.67;65.84;99567.44;5027629;28;20049;-61
2023/03/12 08:50:28;;;;;;;5.97;3.30;;;;;;;5.77;65.94;99525.75;5029894;28;20407;-62
2023/03/12 08:52:55;;;;;;;6.25;2.97;;;;;;;5.83;65.68;99521.78;5028338;28;20061;-62
2023/03/12 08:55:26;;;;;;;5.05;2.83;;;;;;;5.97;65.42;99521.00;5028758;27;20061;-62
2023/03/12 08:57:54;;;;;;;5.22;3.47;;;;;;;6.04;65.21;99511.16;5029379;28;20050;-62
2023/03/12 09:00:22;;;;;;;4.82;2.70;;;;;;;6.30;64.52;99518.94;5029467;28;20053;-61
2023/03/12 09:02:52;;;;;;;5.20;3.65;;;;;;;6.29;64.24;99511.75;5028307;27;20050;-62
2023/03/12 09:05:20;;;;;;;4.45;3.05;;;;;;;6.50;64.01;99517.66;5029128;28;20144;-62
2023/03/12 09:07:48;;;;;;;4.75;3.40;;;;;;;6.65;62.81;99522.03;5029610;28;20069;-61
2023/03/12 09:10:16;;;;;;;4.47;3.20;;;;;;;6.69;63.29;99523.06;5027346;28;20521;-61
2023/03/12 09:12:44;;;;;;;4.55;2.67;;;;;;;6.67;62.69;99528.06;5028966;28;20054;-61
2023/03/12 09:15:12;;;;;;;7.00;3.15;;;;;;;6.60;63.07;99527.69;5027921;28;20049;-61
2023/03/12 09:17:39;;;;;;;5.43;2.88;;;;;;;6.64;63.85;99517.66;5029114;28;20045;-61
2023/03/12 09:20:12;;;;;;;6.07;3.00;;;;;;;6.74;63.67;99516.56;5010655;28;20124;-61
2023/03/12 09:22:40;;;;;;;5.07;3.00;;;;;;;6.84;62.71;99511.63;5009582;28;20042;-61
2023/03/12 09:25:10;;;;;;;5.00;3.22;;;;;;;7.02;62.18;99514.53;5021522;28;20408;-62
2023/03/12 09:27:37;;;;;;;3.95;2.80;;;;;;;7.94;61.86;99514.91;5028905;28;20053;-61
2023/03/12 09:30:07;;;;;;;4.45;2.75;;;;;;;8.06;59.67;99520.66;5029371;28;20058;-62
2023/03/12 09:32:34;;;;;;;7.80;3.17;;;;;;;7.86;60.49;99518.44;5029682;28;20049;-62
2023/03/12 09:35:01;;;;;;;3.45;2.30;;;;;;;7.75;60.86;99504.06;5029497;28;20050;-62
2023/03/12 09:37:31;;;;;;;3.58;2.70;;;;;;;7.91;61.08;99507.19;5029183;28;20373;-61
2023/03/12 09:39:58;;;;;;;5.57;2.83;;;;;;;8.24;60.00;99504.06;5031821;28;20407;-61
2023/03/12 09:42:30;;;;;;;4.60;2.60;;;;;;;8.28;58.95;99505.03;5032060;28;20415;-62
2023/03/12 09:45:04;;;;;;;3.22;2.30;;;;;;;8.23;58.88;99494.91;5032501;28;20062;-61
2023/03/12 09:47:35;;;;;;;3.35;2.25;;;;;;;8.02;59.78;99505.78;5032637;28;20060;-61
2023/03/12 09:50:08;;;;;;;3.42;2.30;;;;;;;7.75;61.43;99494.91;5032036;27;20049;-61
2023/03/12 09:52:44;;;;;;;4.97;2.45;;;;;;;7.56;61.00;99487.66;5032375;28;20065;-61
2023/03/12 09:55:14;;;;;;;2.80;2.38;;;;;;;7.31;62.20;99495.50;5032406;28;20060;-61
2023/03/12 09:57:42;;;;;;;2.65;2.35;;;;;;;7.50;62.35;99484.22;5031101;28;20050;-61
2023/03/12 10:00:14;;;;;;;3.63;2.10;;;;;;;7.58;62.37;99501.19;5031997;27;20064;-61
2023/03/12 10:03:11;;;;;;;2.95;2.17;;;;;;;7.67;61.65;99494.56;5032547;28;20049;-62
2023/03/12 10:05:45;;;;;;;3.53;2.10;;;;;;;7.56;63.01;99492.38;5011449;28;20061;-61
2023/03/12 10:08:25;;;;;;;2.85;2.08;;;;;;;7.48;62.52;99496.75;5032071;28;20072;-61
2023/03/12 10:10:55;;;;;;;2.70;2.13;;;;;;;7.46;62.76;99510.09;5030334;27;20052;-61
2023/03/12 10:13:52;;;;;;;4.47;2.67;;;;;;;7.40;63.54;99519.69;5031212;27;20080;-62
2023/03/12 10:16:35;;;;;;;2.80;2.15;;;;;;;7.42;63.64;99509.91;5030337;28;20545;-62
2023/03/12 10:19:20;;;;;;;2.90;2.08;;;;;;;7.39;64.68;99515.25;5032175;28;20061;-62
2023/03/12 10:21:55;;;;;;;2.50;1.85;;;;;;;7.44;63.86;99512.38;5031987;28;20068;-61
2023/03/12 10:24:42;;;;;;;3.20;1.80;;;;;;;7.54;64.25;99517.66;5033146;28;20056;-61
2023/03/12 10:27:13;;;;;;;2.63;1.80;;;;;;;7.60;64.82;99526.63;5032132;28;20050;-61
2023/03/12 10:29:43;;;;;;;2.58;2.00;;;;;;;7.54;66.49;99531.50;5031563;28;20056;-62
2023/03/12 10:32:15;;;;;;;;;;;;;;;7.51;66.69;99532.13;5032649;28;20045;-62
2023/03/12 10:34:45;;;;;;;2.17;1.45;;;;;;;7.63;67.95;99537.91;5031780;28;19921;-62
2023/03/12 10:37:18;;;;;;;2.80;2.40;;;;;;;7.65;68.56;99530.09;5032905;28;20412;-62
2023/03/12 10:39:47;;;;;;;3.30;2.20;;;;;;;7.77;68.69;99532.28;5032001;28;20504;-62
2023/03/12 10:42:17;;;;;;;3.38;1.90;;;;;;;7.82;68.61;99531.31;5030812;27;20049;-62
2023/03/12 10:44:47;;;;;;;2.90;1.80;;;;;;;8.00;68.34;99521.94;5031915;28;20049;-62
2023/03/12 10:47:38;;;;;;;1.92;1.60;;;;;;;8.21;69.17;99524.09;5031534;28;20049;-61
2023/03/12 10:50:17;;;;;;;3.08;1.77;;;;;;;8.22;68.17;99540.44;5031054;28;20058;-62
2023/03/12 10:52:46;;;;;;;2.47;1.60;;;;;;;8.29;69.62;99534.41;5032159;28;20050;-62
2023/03/12 10:55:21;;;;;;;2.40;1.58;;;;;;;8.32;70.04;99536.56;5030104;28;20049;-62
2023/03/12 10:57:50;;;;;;;3.70;2.70;;;;;;;8.19;70.71;99531.94;5031443;28;20061;-62
2023/03/12 11:00:20;;;;;;;3.60;1.90;;;;;;;8.33;69.99;99533.44;5031569;28;20069;-62
2023/03/12 11:02:57;;;;;;;2.28;1.60;;;;;;;8.44;69.51;99530.38;5032225;28;20056;-61
2023/03/12 11:05:28;;;;;;;3.38;2.35;;;;;;;8.54;70.57;99532.88;5031272;28;20125;-62
2023/03/12 11:07:56;;;;;;;2.70;1.52;;;;;;;8.64;69.91;99540.06;5031628;28;20503;-62
2023/03/12 11:10:26;;;;;;;2.33;1.63;;;;;;;8.47;69.58;99541.66;5029965;27;20049;-62
2023/03/12 11:13:00;;;;;;;1.55;1.10;;;;;;;8.38;68.77;99543.59;5031603;28;20357;-62
2023/03/12 11:15:31;;;;;;;2.15;1.20;;;;;;;8.54;69.32;99543.97;5030163;28;20054;-62
2023/03/12 11:18:27;;;;;;;1.70;1.10;;;;;;;8.47;69.49;99540.84;5028416;28;20053;-62
2023/03/12 11:20:57;;;;;;;2.22;1.10;;;;;;;8.79;69.29;99539.59;5022871;28;20057;-61
2023/03/12 11:23:28;;;;;;;2.13;1.05;;;;;;;8.88;69.17;99543.22;5011472;28;20050;-62
2023/03/12 11:26:00;;;;;;;2.00;1.00;;;;;;;8.69;71.08;99542.69;5021195;28;20049;-62
2023/03/12 11:28:37;;;;;;;2.28;1.27;;;;;;;8.62;70.12;99556.22;5031009;28;20049;-62
2023/03/12 11:31:09;;;;;;;2.10;1.20;;;;;;;8.60;71.88;99547.41;5031076;28;20060;-62
2023/03/12 11:33:36;;;;;;;1.73;1.25;;;;;;;8.62;72.43;99556.22;5030599;28;20057;-62
2023/03/12 11:36:14;;;;;;;1.80;1.13;;;;;;;8.65;72.39;99541.69;5030255;28;20482;-62
2023/03/12 11:38:50;;;;;;;1.60;1.10;;;;;;;8.50;72.37;99538.25;5031044;28;20061;-62
2023/03/12 11:41:36;;;;;;;1.83;1.27;;;;;;;8.67;73.35;99537.47;5028875;27;20050;-62
2023/03/12 11:44:17;;;;;;;2.70;1.40;;;;;;;8.72;72.52;99534.53;5031599;28;20757;-62
2023/03/12 11:46:55;;;;;;;2.85;1.50;;;;;;;8.84;72.56;99536.66;5030392;28;20057;-62
2023/03/12 11:49:37;;;;;;;2.00;1.40;;;;;;;8.74;72.88;99537.00;5030861;28;20490;-61
2023/03/12 11:52:16;;;;;;;1.35;1.00;;;;;;;8.86;73.76;99528.84;5029239;27;20058;-62